createdAt,value
2023-10-23T01:19:16.033Z,81
2023-10-23T01:44:24.251Z,82
2023-10-23T01:49:25.644Z,82
2023-10-23T01:54:27.235Z,81
2023-10-23T01:59:29.082Z,81
2023-10-23T02:04:30.920Z,82
2023-10-23T02:09:32.501Z,82
2023-10-23T02:14:34.114Z,82
2023-10-23T02:19:35.999Z,82
2023-10-23T02:24:37.650Z,82
2023-10-23T02:29:38.642Z,82
2023-10-23T02:34:40.700Z,81
2023-10-23T02:39:42.660Z,82
2023-10-23T02:44:44.531Z,83
2023-10-23T02:49:46.109Z,82
2023-10-23T02:54:47.857Z,82
2023-10-23T02:59:49.648Z,83
2023-10-23T03:04:51.600Z,84
2023-10-23T03:09:53.586Z,83
2023-10-23T03:14:54.994Z,83
2023-10-23T03:19:56.549Z,84
2023-10-23T03:24:58.632Z,84
2023-10-23T03:30:00.041Z,83
2023-10-23T03:35:01.656Z,84
2023-10-23T03:40:03.263Z,84
2023-10-23T03:45:04.829Z,84
2023-10-23T03:50:06.214Z,83
2023-10-23T03:55:08.084Z,83
2023-10-23T04:00:09.323Z,83
2023-10-23T04:05:10.991Z,83
2023-10-23T04:10:12.475Z,83
2023-10-23T04:15:13.982Z,83
2023-10-23T04:20:15.402Z,84
2023-10-23T04:25:16.926Z,83
2023-10-23T04:30:18.326Z,83
2023-10-23T04:35:20.121Z,84
2023-10-23T04:40:21.470Z,85
2023-10-23T04:45:22.946Z,84
2023-10-23T04:50:25.110Z,84
2023-10-23T04:55:26.262Z,84
2023-10-23T05:00:27.436Z,85
2023-10-23T05:05:29.257Z,84
2023-10-23T05:10:31.042Z,84
2023-10-23T05:15:32.787Z,84
2023-10-23T05:20:34.474Z,84
2023-10-23T05:25:35.806Z,84
2023-10-23T05:30:37.449Z,84
2023-10-23T05:35:39.529Z,84
2023-10-23T05:40:41.220Z,84
2023-10-23T05:45:42.732Z,84
2023-10-23T05:50:44.093Z,84
2023-10-23T05:55:45.657Z,84
2023-10-23T06:00:47.909Z,84
2023-10-23T06:05:49.515Z,84
2023-10-23T06:10:51.268Z,85
2023-10-23T06:15:52.685Z,86
2023-10-23T06:20:54.310Z,85
2023-10-23T06:25:55.957Z,85
2023-10-23T06:30:57.340Z,85
2023-10-23T06:35:59.191Z,86
2023-10-23T06:41:00.422Z,85
2023-10-23T06:46:03.071Z,85
2023-10-23T06:51:03.709Z,86
2023-10-23T06:56:05.073Z,87
2023-10-23T07:01:07.191Z,87
2023-10-23T07:06:08.617Z,85
2023-10-23T07:11:09.883Z,83
2023-10-23T07:16:12.068Z,83
2023-10-23T07:21:15.626Z,82
2023-10-23T07:26:15.211Z,81
2023-10-23T07:31:17.269Z,82
2023-10-23T07:36:18.564Z,81
2023-10-23T07:41:19.961Z,80
2023-10-23T07:46:21.679Z,79
2023-10-23T07:51:22.882Z,79
2023-10-23T07:56:24.345Z,78
2023-10-23T08:01:25.678Z,76
2023-10-23T08:06:27.328Z,75
2023-10-23T08:11:28.591Z,75
2023-10-23T08:16:30.104Z,75
2023-10-23T08:21:31.557Z,75
2023-10-23T08:26:33.117Z,75
2023-10-23T08:31:39.685Z,74
2023-10-23T08:36:36.815Z,74
2023-10-23T08:41:41.172Z,73
2023-10-23T08:46:40.139Z,72
2023-10-23T08:51:41.560Z,69
2023-10-23T08:56:43.490Z,68
2023-10-23T09:01:45.197Z,66
2023-10-23T09:06:46.457Z,64
2023-10-23T09:11:48.409Z,63
2023-10-23T09:16:50.014Z,62
2023-10-23T09:21:51.522Z,59
2023-10-23T09:26:53.193Z,57
2023-10-23T09:31:55.337Z,52
2023-10-23T09:36:57.642Z,51
2023-10-23T09:41:59.221Z,47
2023-10-23T09:47:01.003Z,44
2023-10-23T09:52:02.731Z,44
2023-10-23T09:57:04.354Z,42
2023-10-23T10:02:06.254Z,43
2023-10-23T10:07:08.288Z,45
2023-10-23T10:12:09.661Z,45
2023-10-23T10:17:10.759Z,46
2023-10-23T10:22:12.231Z,47
2023-10-23T10:27:13.462Z,47
2023-10-23T10:32:14.799Z,48
2023-10-23T10:37:25.051Z,46
2023-10-23T10:42:18.614Z,47
2023-10-23T10:47:19.973Z,45
2023-10-23T10:52:21.344Z,45
2023-10-23T10:57:22.943Z,46
2023-10-23T11:02:24.901Z,46
2023-10-23T11:07:26.567Z,46
2023-10-23T11:12:27.868Z,46
2023-10-23T11:17:29.218Z,47
2023-10-23T11:22:31.007Z,48
2023-10-23T11:27:32.364Z,49
2023-10-23T11:32:34.463Z,50
2023-10-23T11:37:36.570Z,50
2023-10-23T11:42:37.842Z,50
2023-10-23T11:47:39.359Z,50
2023-10-23T11:52:40.797Z,51
2023-10-23T11:57:42.640Z,53
2023-10-23T12:02:43.974Z,55
2023-10-23T12:07:45.363Z,56
2023-10-23T12:12:46.557Z,57
2023-10-23T12:17:48.088Z,57
2023-10-23T12:22:50.043Z,58
2023-10-23T12:27:51.612Z,58
2023-10-23T12:33:12.363Z,58
2023-10-23T12:37:55.545Z,57
2023-10-23T12:42:57.543Z,58
2023-10-23T12:47:58.943Z,59
2023-10-23T12:53:00.915Z,59
2023-10-23T12:58:02.597Z,58
2023-10-23T13:03:04.025Z,58
2023-10-23T13:08:06.084Z,58
2023-10-23T13:13:07.812Z,59
2023-10-23T13:18:09.212Z,58
2023-10-23T13:23:10.351Z,58
2023-10-23T13:28:11.599Z,58
2023-10-23T13:33:13.497Z,58
2023-10-23T13:38:15.572Z,58
2023-10-23T13:43:17.426Z,58
2023-10-23T13:48:18.591Z,58
2023-10-23T13:53:20.632Z,59
2023-10-23T13:58:22.816Z,59
2023-10-23T14:28:31.494Z,60
2023-10-23T14:33:33.313Z,61
2023-10-23T15:13:46.604Z,62
2023-10-23T15:23:49.882Z,62
2023-10-23T15:33:52.877Z,63
2023-10-23T15:38:54.087Z,63
2023-10-23T15:43:56.149Z,63
2023-10-23T16:19:06.373Z,65
2023-10-23T16:29:09.718Z,65
2023-10-23T16:44:21.333Z,67
2023-10-23T16:49:23.414Z,68
2023-10-23T16:54:24.969Z,68
2023-10-23T16:59:28.647Z,68
2023-10-23T17:04:28.508Z,69
2023-10-23T17:09:29.998Z,69
2023-10-23T17:14:31.295Z,70
2023-10-23T17:19:32.916Z,70
2023-10-23T17:24:34.993Z,70
2023-10-23T17:29:36.633Z,71
2023-10-23T17:34:38.434Z,70
2023-10-23T17:39:40.531Z,71
2023-10-23T17:44:42.005Z,71
2023-10-23T17:49:43.664Z,71
2023-10-23T17:54:45.194Z,72
2023-10-23T17:59:46.599Z,72
2023-10-23T18:04:48.621Z,73
2023-10-23T18:09:50.091Z,73
2023-10-23T18:14:52.237Z,73
2023-10-23T18:19:53.688Z,74
2023-10-23T18:24:55.147Z,75
2023-10-23T18:29:57.091Z,75
2023-10-23T18:34:59.107Z,74
2023-10-23T18:40:01.094Z,75
2023-10-23T18:45:03.017Z,76
2023-10-23T18:50:04.739Z,75
2023-10-23T18:55:05.913Z,75
2023-10-23T19:00:07.412Z,76
2023-10-23T19:05:09.177Z,76
2023-10-23T19:10:11.272Z,76
2023-10-23T19:15:12.724Z,76
2023-10-23T19:20:14.677Z,78
2023-10-23T19:25:16.778Z,77
2023-10-23T19:30:18.209Z,77
2023-10-23T19:35:19.888Z,78
2023-10-23T19:40:21.748Z,79
2023-10-23T19:45:23.693Z,78
2023-10-23T19:50:25.231Z,78
2023-10-23T19:55:44.062Z,79
2023-10-23T20:00:28.585Z,79
2023-10-23T20:05:30.512Z,79
2023-10-23T20:10:32.440Z,79
2023-10-23T20:15:34.199Z,80
2023-10-23T20:20:36.135Z,79
2023-10-23T20:25:38.073Z,79
2023-10-23T20:30:39.909Z,79
2023-10-23T20:35:43.881Z,79
2023-10-23T20:40:43.920Z,78
2023-10-23T20:45:46.069Z,79
2023-10-23T20:50:47.637Z,79
2023-10-23T20:55:48.830Z,78
2023-10-23T21:00:50.264Z,79
2023-10-23T21:05:51.906Z,79
2023-10-23T21:10:53.848Z,79
2023-10-23T21:15:55.564Z,78
2023-10-23T21:20:57.550Z,79
2023-10-23T21:25:58.818Z,79
2023-10-23T21:31:00.561Z,79
2023-10-23T21:36:01.814Z,79
2023-10-23T21:41:03.540Z,80
2023-10-23T21:46:16.457Z,81
2023-10-23T21:51:06.710Z,80
2023-10-23T21:56:08.206Z,80
2023-10-23T22:01:10.090Z,81
2023-10-23T22:06:11.803Z,82
2023-10-23T22:11:13.038Z,81
2023-10-23T22:16:14.360Z,82
2023-10-23T22:21:16.312Z,83
2023-10-23T22:26:17.914Z,82
2023-10-23T22:31:19.690Z,82
2023-10-23T22:36:21.784Z,82
2023-10-23T22:41:23.541Z,82
2023-10-23T22:46:24.889Z,82
2023-10-23T22:51:26.543Z,82
2023-10-23T22:56:27.777Z,83
2023-10-23T23:01:29.699Z,82
2023-10-23T23:06:31.526Z,82
2023-10-23T23:11:32.802Z,82
2023-10-23T23:16:34.851Z,82
2023-10-23T23:21:36.504Z,82
2023-10-23T23:26:37.631Z,82
2023-10-23T23:31:39.348Z,83
2023-10-23T23:36:41.355Z,82
2023-10-23T23:41:42.652Z,82
2023-10-23T23:46:44.793Z,83
2023-10-23T23:51:46.851Z,83
2023-10-23T23:56:48.518Z,82
